Senador Georgino Avelino, Brazil
Current Conditions -  °F | °C
As of 4:00 AM on Tuesday 21 Oct 2014 (Local Time) from SBNT Reporting Station
Scattered Clouds Scattered Clouds  
Wind Chill: 75°   Ceiling: Unl
Heat Index: 75°   Visibility: 6mi
Dew Point: 66°   Wind: 8mph
Humidity: 73%   Direction: 110°ESE
Pressure: 29.85"   Gusts: NA
Location:  6.16°S, 35.12°W
Report Text: SBNT 210700Z 11007KT 9999 SCT018 24/19 Q1011
Loading
Personal Weather Stations






























Interactive Weather Map
Tropical Storm Tracking
New forecast layout! Learn more

10-Day Weather Forecast

Advertisements
Track Severe Weather on mobile